sensor_id;sensor_type;location;lat;lon;timestamp;temperature;humidity
21261;DHT22;10788;47.930;9.766;2023-08-06T00:00:10;13.50;99.90
21261;DHT22;10788;47.930;9.766;2023-08-06T00:02:36;13.50;99.90
21261;DHT22;10788;47.930;9.766;2023-08-06T00:05:02;13.50;99.90
21261;DHT22;10788;47.930;9.766;2023-08-06T00:07:28;13.50;99.90
21261;DHT22;10788;47.930;9.766;2023-08-06T00:09:53;13.60;99.90
21261;DHT22;10788;47.930;9.766;2023-08-06T00:12:19;13.50;99.90
21261;DHT22;10788;47.930;9.766;2023-08-06T00:14:45;13.50;99.90
21261;DHT22;10788;47.930;9.766;2023-08-06T00:17:11;13.50;99.90
21261;DHT22;10788;47.930;9.766;2023-08-06T00:19:36;13.50;99.90
21261;DHT22;10788;47.930;9.766;2023-08-06T00:22:02;13.50;99.90
21261;DHT22;10788;47.930;9.766;2023-08-06T00:24:27;13.50;99.90
21261;DHT22;10788;47.930;9.766;2023-08-06T00:26:53;13.50;99.90
21261;DHT22;10788;47.930;9.766;2023-08-06T00:29:19;13.50;99.90
21261;DHT22;10788;47.930;9.766;2023-08-06T00:31:44;13.60;99.90
21261;DHT22;10788;47.930;9.766;2023-08-06T00:34:10;13.50;99.90
21261;DHT22;10788;47.930;9.766;2023-08-06T00:36:36;13.60;99.90
21261;DHT22;10788;47.930;9.766;2023-08-06T00:39:01;13.50;99.90
21261;DHT22;10788;47.930;9.766;2023-08-06T00:41:28;13.50;99.90
21261;DHT22;10788;47.930;9.766;2023-08-06T00:43:53;13.40;99.90
21261;DHT22;10788;47.930;9.766;2023-08-06T00:46:19;13.50;99.90
21261;DHT22;10788;47.930;9.766;2023-08-06T00:48:45;13.40;99.90
21261;DHT22;10788;47.930;9.766;2023-08-06T00:51:11;13.50;99.90
21261;DHT22;10788;47.930;9.766;2023-08-06T00:53:38;13.50;99.90
21261;DHT22;10788;47.930;9.766;2023-08-06T00:56:04;13.40;99.90
21261;DHT22;10788;47.930;9.766;2023-08-06T00:58:30;13.40;99.90
21261;DHT22;10788;47.930;9.766;2023-08-06T01:00:56;13.50;99.90
21261;DHT22;10788;47.930;9.766;2023-08-06T01:03:22;13.40;99.90
21261;DHT22;10788;47.930;9.766;2023-08-06T01:05:48;13.50;99.90
21261;DHT22;10788;47.930;9.766;2023-08-06T01:08:36;13.40;99.90
21261;DHT22;10788;47.930;9.766;2023-08-06T01:13:43;13.30;99.90
21261;DHT22;10788;47.930;9.766;2023-08-06T01:16:16;13.30;99.90
21261;DHT22;10788;47.930;9.766;2023-08-06T01:18:42;13.40;99.90
21261;DHT22;10788;47.930;9.766;2023-08-06T01:21:14;13.40;99.90
21261;DHT22;10788;47.930;9.766;2023-08-06T01:23:40;13.30;99.90
21261;DHT22;10788;47.930;9.766;2023-08-06T01:26:20;13.40;99.90
21261;DHT22;10788;47.930;9.766;2023-08-06T01:30:07;13.30;99.90
21261;DHT22;10788;47.930;9.766;2023-08-06T01:32:14;13.30;99.90
21261;DHT22;10788;47.930;9.766;2023-08-06T01:34:41;13.30;99.90
21261;DHT22;10788;47.930;9.766;2023-08-06T01:37:09;13.20;99.90
21261;DHT22;10788;47.930;9.766;2023-08-06T01:39:35;13.20;99.90
21261;DHT22;10788;47.930;9.766;2023-08-06T01:42:01;13.20;99.90
21261;DHT22;10788;47.930;9.766;2023-08-06T01:44:27;13.20;99.90
21261;DHT22;10788;47.930;9.766;2023-08-06T01:46:52;13.20;99.90
21261;DHT22;10788;47.930;9.766;2023-08-06T01:49:18;13.20;99.90
21261;DHT22;10788;47.930;9.766;2023-08-06T01:51:43;13.20;99.90
21261;DHT22;10788;47.930;9.766;2023-08-06T01:54:09;13.20;99.90
21261;DHT22;10788;47.930;9.766;2023-08-06T01:56:34;13.20;99.90
21261;DHT22;10788;47.930;9.766;2023-08-06T01:59:00;13.30;99.90
21261;DHT22;10788;47.930;9.766;2023-08-06T02:01:26;13.10;99.90
21261;DHT22;10788;47.930;9.766;2023-08-06T02:03:51;13.10;99.90
21261;DHT22;10788;47.930;9.766;2023-08-06T02:06:17;13.10;99.90
21261;DHT22;10788;47.930;9.766;2023-08-06T02:08:42;13.10;99.90
21261;DHT22;10788;47.930;9.766;2023-08-06T02:11:08;13.20;99.90
21261;DHT22;10788;47.930;9.766;2023-08-06T02:13:33;13.00;99.90
21261;DHT22;10788;47.930;9.766;2023-08-06T02:15:59;13.00;99.90
21261;DHT22;10788;47.930;9.766;2023-08-06T02:18:25;13.00;99.90
21261;DHT22;10788;47.930;9.766;2023-08-06T02:20:58;13.00;99.90
21261;DHT22;10788;47.930;9.766;2023-08-06T02:23:24;12.90;99.90
21261;DHT22;10788;47.930;9.766;2023-08-06T02:26:00;12.90;99.90
21261;DHT22;10788;47.930;9.766;2023-08-06T02:28:26;12.90;99.90
21261;DHT22;10788;47.930;9.766;2023-08-06T02:30:52;12.90;99.90
21261;DHT22;10788;47.930;9.766;2023-08-06T02:33:17;12.90;99.90
21261;DHT22;10788;47.930;9.766;2023-08-06T02:35:43;12.90;99.90
21261;DHT22;10788;47.930;9.766;2023-08-06T02:38:08;12.90;99.90
21261;DHT22;10788;47.930;9.766;2023-08-06T02:40:34;12.90;99.90
21261;DHT22;10788;47.930;9.766;2023-08-06T02:43:00;12.80;99.90
21261;DHT22;10788;47.930;9.766;2023-08-06T02:45:25;12.80;99.90
21261;DHT22;10788;47.930;9.766;2023-08-06T02:47:51;12.80;99.90
21261;DHT22;10788;47.930;9.766;2023-08-06T02:50:16;12.90;99.90
21261;DHT22;10788;47.930;9.766;2023-08-06T02:52:42;12.80;99.90
21261;DHT22;10788;47.930;9.766;2023-08-06T02:55:08;12.80;99.90
21261;DHT22;10788;47.930;9.766;2023-08-06T02:57:33;12.80;99.90
21261;DHT22;10788;47.930;9.766;2023-08-06T02:59:59;12.80;99.90
21261;DHT22;10788;47.930;9.766;2023-08-06T03:02:24;12.80;99.90
21261;DHT22;10788;47.930;9.766;2023-08-06T03:04:50;12.80;99.90
21261;DHT22;10788;47.930;9.766;2023-08-06T03:07:16;12.70;99.90
21261;DHT22;10788;47.930;9.766;2023-08-06T03:09:42;12.80;99.90
21261;DHT22;10788;47.930;9.766;2023-08-06T03:12:07;12.80;99.90
21261;DHT22;10788;47.930;9.766;2023-08-06T03:14:33;12.80;99.90
21261;DHT22;10788;47.930;9.766;2023-08-06T03:16:59;12.80;99.90
21261;DHT22;10788;47.930;9.766;2023-08-06T03:19:24;12.80;99.90
21261;DHT22;10788;47.930;9.766;2023-08-06T03:21:50;12.80;99.90
21261;DHT22;10788;47.930;9.766;2023-08-06T03:24:15;12.80;99.90
21261;DHT22;10788;47.930;9.766;2023-08-06T03:26:41;12.80;99.90
21261;DHT22;10788;47.930;9.766;2023-08-06T03:29:07;12.80;99.90
21261;DHT22;10788;47.930;9.766;2023-08-06T03:31:32;12.90;99.90
21261;DHT22;10788;47.930;9.766;2023-08-06T03:33:58;12.80;99.90
21261;DHT22;10788;47.930;9.766;2023-08-06T03:36:23;12.80;99.90
21261;DHT22;10788;47.930;9.766;2023-08-06T03:38:49;12.80;99.90
21261;DHT22;10788;47.930;9.766;2023-08-06T03:41:14;12.80;99.90
21261;DHT22;10788;47.930;9.766;2023-08-06T03:43:40;12.70;99.90
21261;DHT22;10788;47.930;9.766;2023-08-06T03:46:06;12.70;99.90
21261;DHT22;10788;47.930;9.766;2023-08-06T03:48:31;12.80;99.90
21261;DHT22;10788;47.930;9.766;2023-08-06T03:50:57;12.70;99.90
21261;DHT22;10788;47.930;9.766;2023-08-06T03:53:22;12.60;99.90
21261;DHT22;10788;47.930;9.766;2023-08-06T03:55:48;12.70;99.90
21261;DHT22;10788;47.930;9.766;2023-08-06T03:58:14;12.70;99.90
21261;DHT22;10788;47.930;9.766;2023-08-06T04:00:39;12.80;99.90
21261;DHT22;10788;47.930;9.766;2023-08-06T04:03:05;12.80;99.90
21261;DHT22;10788;47.930;9.766;2023-08-06T04:05:33;12.80;99.90
21261;DHT22;10788;47.930;9.766;2023-08-06T04:07:59;12.80;99.90
21261;DHT22;10788;47.930;9.766;2023-08-06T04:10:25;12.80;99.90
21261;DHT22;10788;47.930;9.766;2023-08-06T04:12:51;12.70;99.90
21261;DHT22;10788;47.930;9.766;2023-08-06T04:15:16;12.70;99.90
21261;DHT22;10788;47.930;9.766;2023-08-06T04:17:42;12.70;99.90
21261;DHT22;10788;47.930;9.766;2023-08-06T04:20:08;12.70;99.90
21261;DHT22;10788;47.930;9.766;2023-08-06T04:22:34;12.80;99.90
21261;DHT22;10788;47.930;9.766;2023-08-06T04:24:59;12.80;99.90
21261;DHT22;10788;47.930;9.766;2023-08-06T04:27:25;12.80;99.90
21261;DHT22;10788;47.930;9.766;2023-08-06T04:29:51;12.90;99.90
21261;DHT22;10788;47.930;9.766;2023-08-06T04:32:16;12.90;99.90
21261;DHT22;10788;47.930;9.766;2023-08-06T04:34:44;12.90;99.90
21261;DHT22;10788;47.930;9.766;2023-08-06T04:37:10;13.00;99.90
21261;DHT22;10788;47.930;9.766;2023-08-06T04:39:35;13.10;99.90
21261;DHT22;10788;47.930;9.766;2023-08-06T04:42:01;13.10;99.90
21261;DHT22;10788;47.930;9.766;2023-08-06T04:44:27;13.10;99.90
21261;DHT22;10788;47.930;9.766;2023-08-06T04:46:52;13.10;99.90
21261;DHT22;10788;47.930;9.766;2023-08-06T04:49:22;13.10;99.90
21261;DHT22;10788;47.930;9.766;2023-08-06T04:51:48;13.10;99.90
21261;DHT22;10788;47.930;9.766;2023-08-06T04:54:13;13.10;99.90
21261;DHT22;10788;47.930;9.766;2023-08-06T04:56:39;13.20;99.90
21261;DHT22;10788;47.930;9.766;2023-08-06T04:59:05;13.10;99.90
21261;DHT22;10788;47.930;9.766;2023-08-06T05:01:31;13.20;99.90
21261;DHT22;10788;47.930;9.766;2023-08-06T05:03:57;13.10;99.90
21261;DHT22;10788;47.930;9.766;2023-08-06T05:06:22;13.00;99.90
21261;DHT22;10788;47.930;9.766;2023-08-06T05:08:48;13.00;99.90
21261;DHT22;10788;47.930;9.766;2023-08-06T05:11:13;13.00;99.90
21261;DHT22;10788;47.930;9.766;2023-08-06T05:13:39;13.00;99.90
21261;DHT22;10788;47.930;9.766;2023-08-06T05:16:05;13.10;99.90
21261;DHT22;10788;47.930;9.766;2023-08-06T05:18:30;13.00;99.90
21261;DHT22;10788;47.930;9.766;2023-08-06T05:20:56;12.90;99.90
21261;DHT22;10788;47.930;9.766;2023-08-06T05:23:22;13.00;99.90
21261;DHT22;10788;47.930;9.766;2023-08-06T05:25:48;12.90;99.90
21261;DHT22;10788;47.930;9.766;2023-08-06T05:28:13;12.90;99.90
21261;DHT22;10788;47.930;9.766;2023-08-06T05:30:40;12.90;99.90
21261;DHT22;10788;47.930;9.766;2023-08-06T05:33:05;12.80;99.90
21261;DHT22;10788;47.930;9.766;2023-08-06T05:35:31;12.80;99.90
21261;DHT22;10788;47.930;9.766;2023-08-06T05:37:57;12.70;99.90
21261;DHT22;10788;47.930;9.766;2023-08-06T05:40:22;12.70;99.90
21261;DHT22;10788;47.930;9.766;2023-08-06T05:42:49;12.70;99.90
21261;DHT22;10788;47.930;9.766;2023-08-06T05:45:15;12.80;99.90
21261;DHT22;10788;47.930;9.766;2023-08-06T05:47:41;12.70;99.90
21261;DHT22;10788;47.930;9.766;2023-08-06T05:50:07;12.70;99.90
21261;DHT22;10788;47.930;9.766;2023-08-06T05:52:34;12.70;99.90
21261;DHT22;10788;47.930;9.766;2023-08-06T05:54:59;12.80;99.90
21261;DHT22;10788;47.930;9.766;2023-08-06T05:57:25;12.90;99.90
21261;DHT22;10788;47.930;9.766;2023-08-06T05:59:51;12.80;99.90
21261;DHT22;10788;47.930;9.766;2023-08-06T06:02:16;12.80;99.90
21261;DHT22;10788;47.930;9.766;2023-08-06T06:04:44;12.80;99.90
21261;DHT22;10788;47.930;9.766;2023-08-06T06:07:09;12.80;99.90
21261;DHT22;10788;47.930;9.766;2023-08-06T06:09:35;12.80;99.90
21261;DHT22;10788;47.930;9.766;2023-08-06T06:12:00;12.80;99.90
21261;DHT22;10788;47.930;9.766;2023-08-06T06:14:26;12.80;99.90
21261;DHT22;10788;47.930;9.766;2023-08-06T06:16:52;12.80;99.90
21261;DHT22;10788;47.930;9.766;2023-08-06T06:19:18;12.80;99.90
21261;DHT22;10788;47.930;9.766;2023-08-06T06:21:44;12.80;99.90
21261;DHT22;10788;47.930;9.766;2023-08-06T06:24:09;12.80;99.90
21261;DHT22;10788;47.930;9.766;2023-08-06T06:26:35;12.90;99.90
21261;DHT22;10788;47.930;9.766;2023-08-06T06:29:01;13.00;99.90
21261;DHT22;10788;47.930;9.766;2023-08-06T06:31:26;13.10;99.90
21261;DHT22;10788;47.930;9.766;2023-08-06T06:33:52;13.10;99.90
21261;DHT22;10788;47.930;9.766;2023-08-06T06:36:19;13.10;99.90
21261;DHT22;10788;47.930;9.766;2023-08-06T06:38:45;13.10;99.90
21261;DHT22;10788;47.930;9.766;2023-08-06T06:41:11;13.10;99.90
21261;DHT22;10788;47.930;9.766;2023-08-06T06:43:36;13.20;99.90
21261;DHT22;10788;47.930;9.766;2023-08-06T06:46:03;13.20;99.90
21261;DHT22;10788;47.930;9.766;2023-08-06T06:48:32;13.10;99.90
21261;DHT22;10788;47.930;9.766;2023-08-06T06:50:59;13.30;99.90
21261;DHT22;10788;47.930;9.766;2023-08-06T06:53:25;13.30;99.90
21261;DHT22;10788;47.930;9.766;2023-08-06T06:56:00;13.40;99.90
21261;DHT22;10788;47.930;9.766;2023-08-06T06:58:26;13.50;99.90
21261;DHT22;10788;47.930;9.766;2023-08-06T07:00:52;13.60;99.90
21261;DHT22;10788;47.930;9.766;2023-08-06T07:03:17;13.70;99.90
21261;DHT22;10788;47.930;9.766;2023-08-06T07:05:44;13.50;99.90
21261;DHT22;10788;47.930;9.766;2023-08-06T07:08:10;13.60;99.90
21261;DHT22;10788;47.930;9.766;2023-08-06T07:10:35;13.40;99.90
21261;DHT22;10788;47.930;9.766;2023-08-06T07:13:01;13.50;99.90
21261;DHT22;10788;47.930;9.766;2023-08-06T07:15:27;13.30;99.90
21261;DHT22;10788;47.930;9.766;2023-08-06T07:17:52;13.20;99.90
21261;DHT22;10788;47.930;9.766;2023-08-06T07:20:20;13.30;99.90
21261;DHT22;10788;47.930;9.766;2023-08-06T07:22:46;13.20;99.90
21261;DHT22;10788;47.930;9.766;2023-08-06T07:25:12;13.20;99.90
21261;DHT22;10788;47.930;9.766;2023-08-06T07:27:38;13.10;99.90
21261;DHT22;10788;47.930;9.766;2023-08-06T07:30:04;13.20;99.90
21261;DHT22;10788;47.930;9.766;2023-08-06T07:32:31;13.30;99.90
21261;DHT22;10788;47.930;9.766;2023-08-06T07:34:56;13.20;99.90
21261;DHT22;10788;47.930;9.766;2023-08-06T07:37:22;13.20;99.90
21261;DHT22;10788;47.930;9.766;2023-08-06T07:39:48;13.20;99.90
21261;DHT22;10788;47.930;9.766;2023-08-06T07:42:14;13.10;99.90
21261;DHT22;10788;47.930;9.766;2023-08-06T07:44:39;13.20;99.90
21261;DHT22;10788;47.930;9.766;2023-08-06T07:47:05;13.10;99.90
21261;DHT22;10788;47.930;9.766;2023-08-06T07:49:31;12.90;99.90
21261;DHT22;10788;47.930;9.766;2023-08-06T07:51:56;12.90;99.90
21261;DHT22;10788;47.930;9.766;2023-08-06T07:54:22;12.70;99.90
21261;DHT22;10788;47.930;9.766;2023-08-06T07:56:49;12.70;99.90
21261;DHT22;10788;47.930;9.766;2023-08-06T07:59:15;12.60;99.90
21261;DHT22;10788;47.930;9.766;2023-08-06T08:01:41;12.50;99.90
21261;DHT22;10788;47.930;9.766;2023-08-06T08:04:06;12.40;99.90
21261;DHT22;10788;47.930;9.766;2023-08-06T08:06:33;12.40;99.90
21261;DHT22;10788;47.930;9.766;2023-08-06T08:08:59;12.30;99.90
21261;DHT22;10788;47.930;9.766;2023-08-06T08:11:26;12.40;99.90
21261;DHT22;10788;47.930;9.766;2023-08-06T08:13:51;12.40;99.90
21261;DHT22;10788;47.930;9.766;2023-08-06T08:16:17;12.40;99.90
21261;DHT22;10788;47.930;9.766;2023-08-06T08:18:43;12.20;99.90
21261;DHT22;10788;47.930;9.766;2023-08-06T08:21:09;12.30;99.90
21261;DHT22;10788;47.930;9.766;2023-08-06T08:23:37;12.30;99.90
21261;DHT22;10788;47.930;9.766;2023-08-06T08:26:04;12.20;99.90
21261;DHT22;10788;47.930;9.766;2023-08-06T08:28:30;12.20;99.90
21261;DHT22;10788;47.930;9.766;2023-08-06T08:30:56;12.20;99.90
21261;DHT22;10788;47.930;9.766;2023-08-06T08:33:22;12.20;99.90
21261;DHT22;10788;47.930;9.766;2023-08-06T08:35:47;12.30;99.90
21261;DHT22;10788;47.930;9.766;2023-08-06T08:38:13;12.30;99.90
21261;DHT22;10788;47.930;9.766;2023-08-06T08:40:46;12.50;99.90
21261;DHT22;10788;47.930;9.766;2023-08-06T08:43:13;12.50;99.90
21261;DHT22;10788;47.930;9.766;2023-08-06T08:45:42;12.60;99.90
21261;DHT22;10788;47.930;9.766;2023-08-06T08:48:12;12.50;99.90
21261;DHT22;10788;47.930;9.766;2023-08-06T08:50:40;12.50;99.90
21261;DHT22;10788;47.930;9.766;2023-08-06T08:53:06;12.50;99.90
21261;DHT22;10788;47.930;9.766;2023-08-06T08:55:33;12.40;99.90
21261;DHT22;10788;47.930;9.766;2023-08-06T08:57:59;12.40;99.90
21261;DHT22;10788;47.930;9.766;2023-08-06T09:00:25;12.30;99.90
21261;DHT22;10788;47.930;9.766;2023-08-06T09:02:51;12.30;99.90
21261;DHT22;10788;47.930;9.766;2023-08-06T09:05:19;12.30;99.90
21261;DHT22;10788;47.930;9.766;2023-08-06T09:07:48;12.30;99.90
21261;DHT22;10788;47.930;9.766;2023-08-06T09:10:16;12.20;99.90
21261;DHT22;10788;47.930;9.766;2023-08-06T09:12:45;12.40;99.90
21261;DHT22;10788;47.930;9.766;2023-08-06T09:15:11;12.20;99.90
21261;DHT22;10788;47.930;9.766;2023-08-06T09:17:37;12.20;99.90
21261;DHT22;10788;47.930;9.766;2023-08-06T09:20:11;12.10;99.90
21261;DHT22;10788;47.930;9.766;2023-08-06T09:22:37;12.20;99.90
21261;DHT22;10788;47.930;9.766;2023-08-06T09:25:02;12.20;99.90
21261;DHT22;10788;47.930;9.766;2023-08-06T09:27:29;12.20;99.90
21261;DHT22;10788;47.930;9.766;2023-08-06T09:29:55;12.10;99.90
21261;DHT22;10788;47.930;9.766;2023-08-06T09:32:20;12.10;99.90
21261;DHT22;10788;47.930;9.766;2023-08-06T09:34:46;12.10;99.90
21261;DHT22;10788;47.930;9.766;2023-08-06T09:37:12;12.10;99.90
21261;DHT22;10788;47.930;9.766;2023-08-06T09:39:40;12.10;99.90
21261;DHT22;10788;47.930;9.766;2023-08-06T09:42:09;12.20;99.90
21261;DHT22;10788;47.930;9.766;2023-08-06T09:44:34;12.20;99.90
21261;DHT22;10788;47.930;9.766;2023-08-06T09:47:02;12.20;99.90
21261;DHT22;10788;47.930;9.766;2023-08-06T09:49:40;12.10;99.90
21261;DHT22;10788;47.930;9.766;2023-08-06T09:52:11;12.20;99.90
21261;DHT22;10788;47.930;9.766;2023-08-06T09:54:38;12.20;99.90
21261;DHT22;10788;47.930;9.766;2023-08-06T09:57:04;12.20;99.90
21261;DHT22;10788;47.930;9.766;2023-08-06T09:59:30;12.20;99.90
21261;DHT22;10788;47.930;9.766;2023-08-06T10:01:58;12.20;99.90
21261;DHT22;10788;47.930;9.766;2023-08-06T10:04:23;12.30;99.90
21261;DHT22;10788;47.930;9.766;2023-08-06T10:06:49;12.30;99.90
21261;DHT22;10788;47.930;9.766;2023-08-06T10:09:15;12.30;99.90
21261;DHT22;10788;47.930;9.766;2023-08-06T10:11:42;12.40;99.90
21261;DHT22;10788;47.930;9.766;2023-08-06T10:14:15;12.40;99.90
21261;DHT22;10788;47.930;9.766;2023-08-06T10:16:42;12.30;99.90
21261;DHT22;10788;47.930;9.766;2023-08-06T10:19:10;12.30;99.90
21261;DHT22;10788;47.930;9.766;2023-08-06T10:21:40;12.30;99.90
21261;DHT22;10788;47.930;9.766;2023-08-06T10:24:08;12.30;99.90
21261;DHT22;10788;47.930;9.766;2023-08-06T10:26:36;12.50;99.90
21261;DHT22;10788;47.930;9.766;2023-08-06T10:29:01;12.60;99.90
21261;DHT22;10788;47.930;9.766;2023-08-06T10:31:54;12.60;99.90
21261;DHT22;10788;47.930;9.766;2023-08-06T10:34:23;12.70;99.90
21261;DHT22;10788;47.930;9.766;2023-08-06T10:36:48;12.80;99.90
21261;DHT22;10788;47.930;9.766;2023-08-06T10:39:14;12.80;99.90
21261;DHT22;10788;47.930;9.766;2023-08-06T10:41:42;13.00;99.90
21261;DHT22;10788;47.930;9.766;2023-08-06T10:44:11;13.10;99.90
21261;DHT22;10788;47.930;9.766;2023-08-06T10:46:37;13.10;99.90
21261;DHT22;10788;47.930;9.766;2023-08-06T10:49:06;13.30;99.90
21261;DHT22;10788;47.930;9.766;2023-08-06T10:51:33;13.40;99.90
21261;DHT22;10788;47.930;9.766;2023-08-06T10:54:21;13.50;99.90
21261;DHT22;10788;47.930;9.766;2023-08-06T10:56:47;13.80;99.90
21261;DHT22;10788;47.930;9.766;2023-08-06T10:59:15;13.90;99.90
21261;DHT22;10788;47.930;9.766;2023-08-06T11:01:41;14.00;99.90
21261;DHT22;10788;47.930;9.766;2023-08-06T11:04:07;14.00;99.90
21261;DHT22;10788;47.930;9.766;2023-08-06T11:06:32;14.10;99.90
21261;DHT22;10788;47.930;9.766;2023-08-06T11:08:59;14.10;99.90
21261;DHT22;10788;47.930;9.766;2023-08-06T11:11:24;14.10;99.90
21261;DHT22;10788;47.930;9.766;2023-08-06T11:13:51;13.90;99.90
21261;DHT22;10788;47.930;9.766;2023-08-06T11:16:19;13.80;99.90
21261;DHT22;10788;47.930;9.766;2023-08-06T11:18:45;13.80;99.90
21261;DHT22;10788;47.930;9.766;2023-08-06T11:21:11;13.80;99.90
21261;DHT22;10788;47.930;9.766;2023-08-06T11:23:37;13.60;99.90
21261;DHT22;10788;47.930;9.766;2023-08-06T11:26:04;13.60;99.90
21261;DHT22;10788;47.930;9.766;2023-08-06T11:28:30;13.50;99.90
21261;DHT22;10788;47.930;9.766;2023-08-06T11:30:55;13.70;99.90
21261;DHT22;10788;47.930;9.766;2023-08-06T11:33:26;13.80;99.90
21261;DHT22;10788;47.930;9.766;2023-08-06T11:35:54;13.80;99.90
21261;DHT22;10788;47.930;9.766;2023-08-06T11:38:20;13.80;99.90
21261;DHT22;10788;47.930;9.766;2023-08-06T11:40:45;13.80;99.90
21261;DHT22;10788;47.930;9.766;2023-08-06T11:43:14;13.80;99.90
21261;DHT22;10788;47.930;9.766;2023-08-06T11:45:43;13.70;99.90
21261;DHT22;10788;47.930;9.766;2023-08-06T11:48:08;13.70;99.90
21261;DHT22;10788;47.930;9.766;2023-08-06T11:50:37;13.50;99.90
21261;DHT22;10788;47.930;9.766;2023-08-06T11:53:06;13.70;99.90
21261;DHT22;10788;47.930;9.766;2023-08-06T11:55:32;13.60;99.90
21261;DHT22;10788;47.930;9.766;2023-08-06T11:57:59;13.60;99.90
21261;DHT22;10788;47.930;9.766;2023-08-06T12:00:29;13.70;99.90
21261;DHT22;10788;47.930;9.766;2023-08-06T12:02:54;13.70;99.90
21261;DHT22;10788;47.930;9.766;2023-08-06T12:05:33;13.70;99.90
21261;DHT22;10788;47.930;9.766;2023-08-06T12:08:00;13.70;99.90
21261;DHT22;10788;47.930;9.766;2023-08-06T12:10:27;13.60;99.90
21261;DHT22;10788;47.930;9.766;2023-08-06T12:12:53;13.60;99.90
21261;DHT22;10788;47.930;9.766;2023-08-06T12:15:20;13.50;99.90
21261;DHT22;10788;47.930;9.766;2023-08-06T12:17:45;13.60;99.90
21261;DHT22;10788;47.930;9.766;2023-08-06T12:20:11;13.60;99.90
21261;DHT22;10788;47.930;9.766;2023-08-06T12:22:37;13.70;99.90
21261;DHT22;10788;47.930;9.766;2023-08-06T12:25:08;13.60;99.90
21261;DHT22;10788;47.930;9.766;2023-08-06T12:27:38;13.70;99.90
21261;DHT22;10788;47.930;9.766;2023-08-06T12:30:05;13.60;99.90
21261;DHT22;10788;47.930;9.766;2023-08-06T12:32:31;13.70;99.90
21261;DHT22;10788;47.930;9.766;2023-08-06T12:34:57;13.40;99.90
21261;DHT22;10788;47.930;9.766;2023-08-06T12:37:24;13.50;99.90
21261;DHT22;10788;47.930;9.766;2023-08-06T12:39:50;13.60;99.90
21261;DHT22;10788;47.930;9.766;2023-08-06T12:42:15;13.40;99.90
21261;DHT22;10788;47.930;9.766;2023-08-06T12:44:41;13.40;99.90
21261;DHT22;10788;47.930;9.766;2023-08-06T12:47:07;13.30;99.90
21261;DHT22;10788;47.930;9.766;2023-08-06T12:49:33;13.30;99.90
21261;DHT22;10788;47.930;9.766;2023-08-06T12:51:59;13.30;99.90
21261;DHT22;10788;47.930;9.766;2023-08-06T12:54:28;13.20;99.90
21261;DHT22;10788;47.930;9.766;2023-08-06T12:56:54;13.30;99.90
21261;DHT22;10788;47.930;9.766;2023-08-06T12:59:20;13.30;99.90
21261;DHT22;10788;47.930;9.766;2023-08-06T13:01:46;13.20;99.90
21261;DHT22;10788;47.930;9.766;2023-08-06T13:04:12;13.30;99.90
21261;DHT22;10788;47.930;9.766;2023-08-06T13:06:37;13.20;99.90
21261;DHT22;10788;47.930;9.766;2023-08-06T13:09:07;13.20;99.90
21261;DHT22;10788;47.930;9.766;2023-08-06T13:11:34;13.20;99.90
21261;DHT22;10788;47.930;9.766;2023-08-06T13:14:10;13.30;99.90
21261;DHT22;10788;47.930;9.766;2023-08-06T13:16:37;13.40;99.90
21261;DHT22;10788;47.930;9.766;2023-08-06T13:19:04;13.40;99.90
21261;DHT22;10788;47.930;9.766;2023-08-06T13:21:35;13.40;99.90
21261;DHT22;10788;47.930;9.766;2023-08-06T13:24:17;13.30;99.90
21261;DHT22;10788;47.930;9.766;2023-08-06T13:26:42;13.30;99.90
21261;DHT22;10788;47.930;9.766;2023-08-06T13:29:08;13.30;99.90
21261;DHT22;10788;47.930;9.766;2023-08-06T13:31:34;13.10;99.90
21261;DHT22;10788;47.930;9.766;2023-08-06T13:33:59;13.30;99.90
21261;DHT22;10788;47.930;9.766;2023-08-06T13:36:26;13.20;99.90
21261;DHT22;10788;47.930;9.766;2023-08-06T13:38:52;13.20;99.90
21261;DHT22;10788;47.930;9.766;2023-08-06T13:41:17;13.20;99.90
21261;DHT22;10788;47.930;9.766;2023-08-06T13:43:43;13.10;99.90
21261;DHT22;10788;47.930;9.766;2023-08-06T13:46:10;13.10;99.90
21261;DHT22;10788;47.930;9.766;2023-08-06T13:48:42;13.10;99.90
21261;DHT22;10788;47.930;9.766;2023-08-06T13:51:08;13.20;99.90
21261;DHT22;10788;47.930;9.766;2023-08-06T13:53:33;13.10;99.90
21261;DHT22;10788;47.930;9.766;2023-08-06T13:55:59;13.10;99.90
21261;DHT22;10788;47.930;9.766;2023-08-06T13:58:25;13.20;99.90
21261;DHT22;10788;47.930;9.766;2023-08-06T14:00:52;13.00;99.90
21261;DHT22;10788;47.930;9.766;2023-08-06T14:03:18;13.00;99.90
21261;DHT22;10788;47.930;9.766;2023-08-06T14:05:44;13.00;99.90
21261;DHT22;10788;47.930;9.766;2023-08-06T14:08:10;12.90;99.90
21261;DHT22;10788;47.930;9.766;2023-08-06T14:10:35;12.80;99.90
21261;DHT22;10788;47.930;9.766;2023-08-06T14:13:01;12.90;99.90
21261;DHT22;10788;47.930;9.766;2023-08-06T14:15:27;13.00;99.90
21261;DHT22;10788;47.930;9.766;2023-08-06T14:17:52;13.20;99.90
21261;DHT22;10788;47.930;9.766;2023-08-06T14:20:18;13.10;99.90
21261;DHT22;10788;47.930;9.766;2023-08-06T14:22:43;13.10;99.90
21261;DHT22;10788;47.930;9.766;2023-08-06T14:25:09;13.30;99.90
21261;DHT22;10788;47.930;9.766;2023-08-06T14:27:35;13.40;99.90
21261;DHT22;10788;47.930;9.766;2023-08-06T14:30:01;13.40;99.90
21261;DHT22;10788;47.930;9.766;2023-08-06T14:32:28;13.40;99.90
21261;DHT22;10788;47.930;9.766;2023-08-06T14:34:54;13.30;99.90
21261;DHT22;10788;47.930;9.766;2023-08-06T14:37:20;13.40;99.90
21261;DHT22;10788;47.930;9.766;2023-08-06T14:39:45;13.30;99.90
21261;DHT22;10788;47.930;9.766;2023-08-06T14:42:11;13.30;99.90
21261;DHT22;10788;47.930;9.766;2023-08-06T14:44:36;13.30;99.90
21261;DHT22;10788;47.930;9.766;2023-08-06T14:47:02;13.30;99.90
21261;DHT22;10788;47.930;9.766;2023-08-06T14:49:28;13.20;99.90
21261;DHT22;10788;47.930;9.766;2023-08-06T14:51:54;13.20;99.90
21261;DHT22;10788;47.930;9.766;2023-08-06T14:54:19;13.20;99.90
21261;DHT22;10788;47.930;9.766;2023-08-06T14:56:45;13.20;99.90
21261;DHT22;10788;47.930;9.766;2023-08-06T14:59:10;13.20;99.90
21261;DHT22;10788;47.930;9.766;2023-08-06T15:01:36;13.20;99.90
21261;DHT22;10788;47.930;9.766;2023-08-06T15:04:02;13.20;99.90
21261;DHT22;10788;47.930;9.766;2023-08-06T15:06:27;13.20;99.90
21261;DHT22;10788;47.930;9.766;2023-08-06T15:08:53;13.20;99.90
21261;DHT22;10788;47.930;9.766;2023-08-06T15:11:23;13.10;99.90
21261;DHT22;10788;47.930;9.766;2023-08-06T15:13:49;13.10;99.90
21261;DHT22;10788;47.930;9.766;2023-08-06T15:16:14;13.00;99.90
21261;DHT22;10788;47.930;9.766;2023-08-06T15:18:40;12.90;99.90
21261;DHT22;10788;47.930;9.766;2023-08-06T15:21:05;12.80;99.90
21261;DHT22;10788;47.930;9.766;2023-08-06T15:23:31;12.80;99.90
21261;DHT22;10788;47.930;9.766;2023-08-06T15:25:56;12.80;99.90
21261;DHT22;10788;47.930;9.766;2023-08-06T15:28:22;12.70;99.90